createdAt,value
2022-12-01T00:02:51.695Z,77.44
2022-12-01T00:07:54.109Z,77.10
2022-12-01T00:13:06.834Z,77.51
2022-12-01T00:18:10.689Z,77.34
2022-12-01T00:23:12.748Z,77.47
2022-12-01T00:28:14.582Z,77.48
2022-12-01T00:33:16.438Z,77.57
2022-12-01T00:38:21.316Z,77.71
2022-12-01T00:43:24.375Z,78.10
2022-12-01T00:48:26.287Z,77.91
2022-12-01T00:53:28.194Z,77.75
2022-12-01T00:58:30.067Z,77.76
2022-12-01T01:03:32.792Z,77.64
2022-12-01T01:08:35.343Z,77.74
2022-12-01T01:13:38.569Z,77.59
2022-12-01T01:18:40.594Z,77.68
2022-12-01T01:23:43.178Z,77.80
2022-12-01T01:28:46.391Z,77.88
2022-12-01T01:33:49.965Z,77.71
2022-12-01T01:38:53.449Z,77.70
2022-12-01T01:44:24.849Z,77.72
2022-12-01T01:49:26.856Z,77.73
2022-12-01T01:54:35.261Z,77.81
2022-12-01T01:59:43.078Z,77.66
2022-12-01T02:04:51.519Z,77.46
2022-12-01T02:09:55.546Z,77.40
2022-12-01T02:15:17.313Z,77.50
2022-12-01T02:20:42.763Z,77.69
2022-12-01T02:26:14.886Z,77.71
2022-12-01T02:31:22.794Z,77.64
2022-12-01T02:36:32.844Z,77.64
2022-12-01T02:41:42.582Z,77.75
2022-12-01T02:46:49.728Z,77.46
2022-12-01T02:51:54.884Z,77.56
2022-12-01T02:56:56.787Z,77.52
2022-12-01T03:02:24.746Z,77.62
2022-12-01T03:07:54.310Z,77.72
2022-12-01T03:13:02.304Z,77.99
2022-12-01T03:18:09.645Z,77.78
2022-12-01T03:23:16.811Z,77.77
2022-12-01T03:28:23.000Z,77.66
2022-12-01T03:33:31.673Z,77.70
2022-12-01T03:38:36.846Z,77.78
2022-12-01T03:43:43.765Z,77.78
2022-12-01T03:48:46.773Z,77.62
2022-12-01T03:53:48.822Z,77.79
2022-12-01T03:58:56.660Z,77.99
2022-12-01T04:04:12.201Z,77.93
2022-12-01T04:09:14.133Z,77.86
2022-12-01T04:14:16.013Z,77.93
2022-12-01T04:19:18.071Z,77.99
2022-12-01T04:24:20.133Z,78.45
2022-12-01T04:29:22.226Z,78.09
2022-12-01T04:34:24.397Z,78.21
2022-12-01T04:39:26.333Z,78.21
2022-12-01T04:44:34.294Z,78.09
2022-12-01T04:49:37.410Z,78.42
2022-12-01T04:54:39.223Z,78.40
2022-12-01T04:59:41.288Z,78.46
2022-12-01T05:04:48.310Z,78.40
2022-12-01T05:09:50.560Z,78.67
2022-12-01T05:14:53.013Z,78.44
2022-12-01T05:20:13.429Z,78.71
2022-12-01T05:25:15.367Z,78.61
2022-12-01T05:30:17.368Z,78.78
2022-12-01T05:35:19.511Z,78.69
2022-12-01T05:40:21.575Z,78.83
2022-12-01T05:45:24.515Z,78.76
2022-12-01T05:50:28.150Z,78.80
2022-12-01T05:55:32.632Z,78.65
2022-12-01T06:00:37.608Z,78.59
2022-12-01T06:05:44.964Z,78.75
2022-12-01T06:10:47.433Z,78.74
2022-12-01T06:16:04.889Z,78.86
2022-12-01T06:21:07.615Z,78.79
2022-12-01T06:26:09.494Z,79.10
2022-12-01T06:31:11.390Z,79.09
2022-12-01T06:36:13.519Z,79.13
2022-12-01T06:41:15.481Z,79.10
2022-12-01T06:46:20.231Z,79.16
2022-12-01T06:51:23.201Z,78.92
2022-12-01T06:56:26.220Z,79.12
2022-12-01T07:01:28.765Z,79.20
2022-12-01T07:06:32.417Z,78.97
2022-12-01T07:11:36.921Z,79.09
2022-12-01T07:16:39.142Z,79.33
2022-12-01T07:21:41.334Z,79.02
2022-12-01T07:26:43.709Z,79.13
2022-12-01T07:31:45.684Z,79.34
2022-12-01T07:36:47.993Z,79.12
2022-12-01T07:41:49.922Z,79.28
2022-12-01T07:46:52.063Z,79.41
2022-12-01T07:51:53.950Z,79.43
2022-12-01T07:56:55.937Z,79.30
2022-12-01T08:01:58.031Z,79.25
2022-12-01T08:07:00.086Z,79.36
2022-12-01T08:12:01.905Z,79.35
2022-12-01T08:17:03.713Z,79.52
2022-12-01T08:22:05.596Z,79.29
2022-12-01T08:27:07.561Z,79.54
2022-12-01T08:32:09.884Z,79.66
2022-12-01T08:37:11.939Z,79.84
2022-12-01T08:42:13.975Z,79.36
2022-12-01T08:47:18.897Z,79.46
2022-12-01T08:52:21.839Z,79.57
2022-12-01T08:57:23.907Z,79.55
2022-12-01T09:02:26.184Z,79.62
2022-12-01T09:07:29.010Z,79.57
2022-12-01T09:12:31.353Z,79.56
2022-12-01T09:17:33.646Z,79.54
2022-12-01T09:22:35.603Z,79.76
2022-12-01T09:27:37.634Z,79.68
2022-12-01T09:32:39.729Z,80.03
2022-12-01T09:37:41.938Z,79.94
2022-12-01T09:42:47.570Z,79.81
2022-12-01T09:47:50.100Z,79.83
2022-12-01T09:52:58.202Z,79.81
2022-12-01T09:58:03.179Z,79.91
2022-12-01T10:03:35.846Z,79.91
2022-12-01T10:08:51.724Z,79.80
2022-12-01T10:13:54.014Z,79.80
2022-12-01T10:19:22.103Z,79.82
2022-12-01T10:24:33.046Z,79.88
2022-12-01T10:29:47.970Z,79.98
2022-12-01T10:34:50.507Z,79.93
2022-12-01T10:39:55.315Z,79.86
2022-12-01T10:45:03.398Z,80.01
2022-12-01T10:50:05.937Z,79.80
2022-12-01T10:55:44.905Z,79.88
2022-12-01T11:01:00.601Z,79.67
2022-12-01T11:06:06.989Z,79.86
2022-12-01T11:11:30.539Z,79.82
2022-12-01T11:16:35.365Z,79.78
2022-12-01T11:21:52.062Z,79.86
2022-12-01T11:26:55.381Z,80.03
2022-12-01T11:32:02.020Z,79.91
2022-12-01T11:37:09.151Z,80.07
2022-12-01T11:42:13.844Z,79.89
2022-12-01T11:47:24.378Z,79.84
2022-12-01T11:52:36.854Z,80.05
2022-12-01T11:57:43.109Z,79.75
2022-12-01T12:03:03.881Z,80.07
2022-12-01T12:08:18.382Z,79.85
2022-12-01T12:13:35.751Z,79.95
2022-12-01T12:19:06.154Z,80.03
2022-12-01T12:24:26.015Z,79.93
2022-12-01T12:29:43.023Z,80.04
2022-12-01T12:34:45.135Z,79.90
2022-12-01T12:40:08.801Z,79.74
2022-12-01T12:45:20.165Z,79.89
2022-12-01T12:50:54.082Z,79.92
2022-12-01T12:56:03.318Z,79.94
2022-12-01T13:01:05.830Z,79.97
2022-12-01T13:06:20.534Z,79.95
2022-12-01T13:11:29.335Z,79.91
2022-12-01T13:16:36.940Z,80.00
2022-12-01T13:21:44.790Z,79.93
2022-12-01T13:26:49.679Z,80.06
2022-12-01T13:31:54.464Z,79.97
2022-12-01T13:36:56.850Z,80.18
2022-12-01T13:42:20.190Z,80.08
2022-12-01T13:47:24.802Z,79.80
2022-12-01T13:52:31.465Z,79.96
2022-12-01T13:57:44.365Z,80.08
2022-12-01T14:02:46.480Z,79.92
2022-12-01T14:07:54.050Z,79.94
2022-12-01T14:13:19.982Z,80.05
2022-12-01T14:18:39.554Z,79.71
2022-12-01T14:24:01.416Z,79.74
2022-12-01T14:29:06.251Z,79.86
2022-12-01T14:34:18.783Z,79.97
2022-12-01T14:39:28.110Z,79.82
2022-12-01T14:44:55.536Z,79.69
2022-12-01T14:50:27.056Z,79.96
2022-12-01T14:55:41.942Z,80.18
2022-12-01T15:01:05.310Z,79.95
2022-12-01T15:06:08.813Z,79.77
2022-12-01T15:11:25.616Z,79.82
2022-12-01T15:16:32.681Z,79.58
2022-12-01T15:21:34.877Z,79.92
2022-12-01T15:26:47.110Z,79.99
2022-12-01T15:31:53.960Z,79.89
2022-12-01T15:36:57.175Z,80.37
2022-12-01T15:41:59.852Z,79.84
2022-12-01T15:47:36.161Z,80.17
2022-12-01T15:52:43.125Z,79.82
2022-12-01T15:57:47.338Z,79.97
2022-12-01T16:02:53.624Z,79.86
2022-12-01T16:08:13.429Z,79.76
2022-12-01T16:14:03.037Z,79.94
2022-12-01T16:19:08.285Z,79.90
2022-12-01T16:24:18.674Z,79.80
2022-12-01T16:29:23.047Z,79.75
2022-12-01T16:34:45.157Z,79.60
2022-12-01T16:39:47.548Z,79.68
2022-12-01T16:44:52.058Z,79.63
2022-12-01T16:49:54.540Z,79.54
2022-12-01T16:54:56.606Z,79.63
2022-12-01T16:59:58.545Z,79.56
2022-12-01T17:05:00.748Z,79.53
2022-12-01T17:10:02.977Z,79.50
2022-12-01T17:15:05.816Z,79.50
2022-12-01T17:20:09.014Z,79.54
2022-12-01T17:25:11.185Z,79.50
2022-12-01T17:30:13.967Z,79.60
2022-12-01T17:35:16.195Z,79.41
2022-12-01T17:40:18.848Z,79.53
2022-12-01T17:45:20.891Z,79.35
2022-12-01T17:50:23.018Z,79.37
2022-12-01T17:55:24.979Z,79.27
2022-12-01T18:00:27.045Z,79.33
2022-12-01T18:05:29.621Z,79.21
2022-12-01T18:10:31.657Z,79.38
2022-12-01T18:15:34.865Z,79.25
2022-12-01T18:20:43.935Z,79.09
2022-12-01T18:25:46.088Z,79.16
2022-12-01T18:30:49.448Z,79.32
2022-12-01T18:35:52.435Z,79.20
2022-12-01T18:40:59.219Z,79.36
2022-12-01T18:46:03.860Z,79.22
2022-12-01T18:51:07.916Z,79.25
2022-12-01T18:56:12.116Z,79.26
2022-12-01T19:01:18.782Z,79.34
2022-12-01T19:06:21.018Z,79.36
2022-12-01T19:11:22.989Z,79.23
2022-12-01T19:16:25.756Z,79.17
2022-12-01T19:21:28.346Z,79.16
2022-12-01T19:26:30.583Z,79.18
2022-12-01T19:31:32.741Z,79.35
2022-12-01T19:36:37.093Z,79.21
2022-12-01T19:41:39.000Z,79.19
2022-12-01T19:46:41.570Z,79.12
2022-12-01T19:51:43.540Z,79.17
2022-12-01T19:56:46.349Z,79.34
2022-12-01T20:01:48.593Z,79.39
2022-12-01T20:06:50.548Z,79.26
2022-12-01T20:11:53.894Z,79.28
2022-12-01T20:16:56.213Z,79.15
2022-12-01T20:21:58.349Z,79.41
2022-12-01T20:27:00.815Z,79.19
2022-12-01T20:32:06.011Z,79.22
2022-12-01T20:37:08.085Z,79.45
2022-12-01T20:42:12.461Z,79.06
2022-12-01T20:47:16.979Z,78.98
2022-12-01T20:52:18.910Z,79.08
2022-12-01T20:57:21.048Z,79.23
2022-12-01T21:02:23.037Z,79.17
2022-12-01T21:07:25.957Z,79.04
2022-12-01T21:12:47.948Z,79.15
2022-12-01T21:17:58.478Z,79.18
2022-12-01T21:23:12.524Z,79.09
2022-12-01T21:28:24.264Z,79.08
2022-12-01T21:33:37.143Z,79.52
2022-12-01T21:38:39.076Z,79.16
2022-12-01T21:43:41.068Z,79.23
2022-12-01T21:48:44.154Z,79.17
2022-12-01T21:53:47.415Z,79.07
2022-12-01T21:58:50.523Z,79.20
2022-12-01T22:03:54.156Z,79.25
2022-12-01T22:09:18.877Z,79.31
2022-12-01T22:14:29.110Z,79.08
2022-12-01T22:19:38.142Z,79.05
2022-12-01T22:24:47.484Z,79.00
2022-12-01T22:29:53.216Z,79.50
2022-12-01T22:34:59.083Z,79.25
2022-12-01T22:40:01.280Z,79.23
2022-12-01T22:45:24.186Z,79.21
2022-12-01T22:50:30.727Z,79.08
2022-12-01T22:55:32.555Z,79.34
2022-12-01T23:00:34.831Z,79.19
2022-12-01T23:05:37.082Z,79.26
2022-12-01T23:10:40.820Z,79.26
2022-12-01T23:15:47.603Z,79.26
2022-12-01T23:20:53.023Z,78.97
2022-12-01T23:25:55.094Z,79.40
2022-12-01T23:30:59.311Z,79.19
2022-12-01T23:36:10.853Z,79.37
2022-12-01T23:41:33.479Z,79.52
2022-12-01T23:46:36.715Z,79.17
2022-12-01T23:51:42.764Z,79.42
2022-12-01T23:56:51.764Z,79.54
